createdAt,value
2022-12-08T00:00:05.629Z,31.88
2022-12-08T00:02:40.181Z,32.20
2022-12-08T00:05:29.050Z,43.38
2022-12-08T00:08:16.095Z,20.83
2022-12-08T00:10:49.942Z,21.50
2022-12-08T00:13:18.703Z,41.17
2022-12-08T00:15:47.278Z,35.85
2022-12-08T00:18:16.007Z,35.60
2022-12-08T00:20:44.834Z,21.85
2022-12-08T00:23:14.155Z,30.55
2022-12-08T00:25:42.737Z,32.95
2022-12-08T00:28:11.752Z,38.72
2022-12-08T00:30:43.778Z,32.20
2022-12-08T00:33:15.084Z,40.67
2022-12-08T00:35:43.794Z,24.88
2022-12-08T00:38:12.838Z,20.42
2022-12-08T00:40:48.498Z,36.55
2022-12-08T00:43:17.493Z,32.60
2022-12-08T00:45:46.128Z,28.45
2022-12-08T00:48:15.127Z,37.75
2022-12-08T00:50:44.077Z,43.50
2022-12-08T00:53:12.652Z,41.80
2022-12-08T00:55:42.008Z,18.13
2022-12-08T00:58:10.816Z,26.10
2022-12-08T01:00:42.674Z,40.78
2022-12-08T01:03:12.656Z,27.90
2022-12-08T01:05:41.420Z,39.30
2022-12-08T01:08:10.208Z,39.92
2022-12-08T01:10:40.475Z,38.58
2022-12-08T01:13:09.299Z,36.67
2022-12-08T01:15:38.596Z,40.90
2022-12-08T01:18:07.273Z,33.38
2022-12-08T01:20:35.920Z,34.80
2022-12-08T01:23:04.536Z,29.10
2022-12-08T01:25:36.195Z,20.48
2022-12-08T01:28:05.087Z,30.95
2022-12-08T01:30:34.037Z,35.90
2022-12-08T01:33:02.734Z,34.13
2022-12-08T01:35:31.566Z,35.38
2022-12-08T01:38:00.356Z,29.23
2022-12-08T01:40:29.074Z,28.88
2022-12-08T01:42:57.675Z,24.33
2022-12-08T01:45:29.733Z,31.65
2022-12-08T01:48:09.038Z,21.30
2022-12-08T01:50:40.906Z,30.65
2022-12-08T01:53:17.919Z,34.35
2022-12-08T01:56:00.506Z,35.88
2022-12-08T01:58:53.719Z,32.17
2022-12-08T02:01:22.954Z,17.77
2022-12-08T02:03:59.747Z,25.27
2022-12-08T02:06:39.328Z,29.33
2022-12-08T02:09:09.001Z,17.90
2022-12-08T02:11:37.854Z,26.20
2022-12-08T02:14:09.517Z,34.90
2022-12-08T02:17:03.059Z,38.80
2022-12-08T02:20:05.813Z,25.55
2022-12-08T02:22:49.498Z,24.35
2022-12-08T02:25:33.359Z,22.95
2022-12-08T02:31:11.584Z,25.23
2022-12-08T02:33:46.084Z,14.55
2022-12-08T02:36:22.982Z,25.98
2022-12-08T02:39:04.208Z,30.02
2022-12-08T02:41:45.969Z,19.02
2022-12-08T02:44:29.143Z,17.85
2022-12-08T02:47:13.394Z,20.40
2022-12-08T02:49:42.492Z,20.90
2022-12-08T02:52:16.392Z,27.30
2022-12-08T02:54:51.683Z,17.65
2022-12-08T02:57:47.878Z,27.63
2022-12-08T03:00:25.679Z,15.85
2022-12-08T03:03:24.901Z,14.68
2022-12-08T03:06:26.587Z,24.25
2022-12-08T03:09:04.492Z,13.95
2022-12-08T03:11:45.077Z,29.02
2022-12-08T03:14:17.393Z,20.50
2022-12-08T03:16:51.907Z,23.08
2022-12-08T03:19:27.824Z,30.45
2022-12-08T03:22:03.696Z,13.10
2022-12-08T03:24:36.732Z,16.70
2022-12-08T03:27:21.448Z,29.48
2022-12-08T03:29:52.872Z,31.25
2022-12-08T03:32:27.383Z,20.48
2022-12-08T03:34:58.753Z,20.77
2022-12-08T03:37:29.075Z,11.52
2022-12-08T03:39:58.485Z,22.63
2022-12-08T03:42:26.994Z,11.73
2022-12-08T03:44:55.546Z,11.90
2022-12-08T03:47:24.096Z,16.20
2022-12-08T03:49:52.616Z,16.23
2022-12-08T03:52:21.037Z,35.13
2022-12-08T03:54:49.847Z,19.40
2022-12-08T03:57:18.372Z,19.05
2022-12-08T03:59:46.974Z,17.98
2022-12-08T04:02:17.973Z,28.70
2022-12-08T04:04:46.584Z,25.95
2022-12-08T04:07:15.053Z,18.23
2022-12-08T04:09:43.604Z,33.20
2022-12-08T04:12:12.222Z,20.88
2022-12-08T04:14:40.738Z,22.08
2022-12-08T04:17:09.284Z,15.13
2022-12-08T04:19:37.794Z,22.98
2022-12-08T04:22:06.266Z,12.68
2022-12-08T04:24:34.802Z,20.25
2022-12-08T04:27:03.504Z,20.45
2022-12-08T04:29:32.216Z,25.30
2022-12-08T04:32:00.975Z,22.15
2022-12-08T04:34:29.544Z,35.30
2022-12-08T04:36:58.056Z,27.83
2022-12-08T04:39:26.737Z,20.73
2022-12-08T04:41:55.189Z,26.88
2022-12-08T04:44:23.795Z,18.10
2022-12-08T04:46:52.201Z,14.50
2022-12-08T04:49:20.915Z,18.25
2022-12-08T04:51:49.725Z,19.05
2022-12-08T04:54:18.257Z,32.28
2022-12-08T04:56:46.796Z,27.00
2022-12-08T04:59:15.440Z,16.95
2022-12-08T05:01:44.228Z,23.83
2022-12-08T05:04:15.443Z,37.17
2022-12-08T05:06:43.935Z,29.23
2022-12-08T05:09:12.934Z,23.38
2022-12-08T05:11:48.379Z,24.42
2022-12-08T05:14:19.725Z,16.65
2022-12-08T05:16:48.653Z,23.45
2022-12-08T05:19:20.448Z,27.63
2022-12-08T05:21:48.917Z,20.60
2022-12-08T05:24:17.460Z,24.80
2022-12-08T05:26:45.982Z,21.92
2022-12-08T05:29:14.507Z,27.00
2022-12-08T05:31:43.314Z,20.17
2022-12-08T05:34:12.098Z,27.70
2022-12-08T05:36:40.955Z,15.85
2022-12-08T05:39:13.118Z,18.77
2022-12-08T05:41:42.254Z,21.52
2022-12-08T05:44:10.936Z,24.17
2022-12-08T05:46:39.508Z,27.67
2022-12-08T05:49:08.196Z,26.35
2022-12-08T05:51:36.754Z,18.52
2022-12-08T05:54:05.404Z,22.50
2022-12-08T05:56:33.983Z,21.30
2022-12-08T05:59:02.643Z,26.77
2022-12-08T06:01:32.716Z,23.40
2022-12-08T06:04:03.955Z,17.52
2022-12-08T06:06:35.010Z,24.13
2022-12-08T06:09:05.968Z,14.55
2022-12-08T06:11:34.777Z,32.85
2022-12-08T06:14:04.077Z,27.50
2022-12-08T06:16:32.958Z,37.65
2022-12-08T06:19:01.392Z,28.05
2022-12-08T06:21:32.335Z,28.05
2022-12-08T06:24:01.046Z,27.20
2022-12-08T06:26:29.649Z,24.92
2022-12-08T06:28:58.330Z,15.05
2022-12-08T06:31:27.758Z,27.15
2022-12-08T06:33:56.696Z,21.70
2022-12-08T06:36:28.999Z,14.38
2022-12-08T06:38:57.946Z,20.02
2022-12-08T06:41:27.544Z,27.08
2022-12-08T06:43:59.434Z,18.70
2022-12-08T06:46:28.195Z,21.55
2022-12-08T06:48:56.698Z,35.13
2022-12-08T06:51:25.315Z,18.80
2022-12-08T06:53:53.919Z,24.85
2022-12-08T06:56:24.798Z,16.40
2022-12-08T06:58:53.396Z,19.90
2022-12-08T07:01:22.459Z,23.33
2022-12-08T07:03:51.152Z,18.73
2022-12-08T07:06:24.099Z,23.30
2022-12-08T07:08:53.248Z,17.63
2022-12-08T07:11:22.697Z,29.20
2022-12-08T07:13:51.716Z,20.80
2022-12-08T07:16:20.590Z,21.85
2022-12-08T07:18:49.341Z,24.60
2022-12-08T07:21:18.679Z,24.95
2022-12-08T07:23:56.029Z,22.27
2022-12-08T07:26:27.561Z,20.77
2022-12-08T07:28:56.275Z,24.63
2022-12-08T07:31:26.776Z,23.38
2022-12-08T07:33:57.045Z,21.85
2022-12-08T07:36:26.308Z,18.45
2022-12-08T07:38:55.254Z,28.75
2022-12-08T07:41:26.386Z,17.95
2022-12-08T07:43:55.257Z,19.55
2022-12-08T07:46:25.710Z,23.55
2022-12-08T07:48:55.893Z,18.73
2022-12-08T07:51:25.647Z,12.23
2022-12-08T07:53:55.355Z,19.65
2022-12-08T07:56:24.617Z,24.48
2022-12-08T07:58:53.521Z,25.20
2022-12-08T08:01:29.558Z,23.80
2022-12-08T08:04:05.001Z,17.42
2022-12-08T08:06:35.098Z,28.67
2022-12-08T08:09:03.657Z,22.33
2022-12-08T08:11:32.443Z,17.95
2022-12-08T08:14:00.973Z,21.60
2022-12-08T08:16:33.646Z,24.55
2022-12-08T08:19:06.739Z,20.88
2022-12-08T08:21:50.489Z,18.23
2022-12-08T08:24:21.159Z,16.30
2022-12-08T08:26:49.595Z,24.35
2022-12-08T08:29:19.046Z,16.02
2022-12-08T08:31:48.519Z,19.05
2022-12-08T08:34:18.238Z,13.18
2022-12-08T08:36:48.034Z,23.02
2022-12-08T08:39:17.478Z,18.02
2022-12-08T08:41:46.941Z,11.13
2022-12-08T08:44:16.075Z,13.52
2022-12-08T08:46:44.807Z,28.50
2022-12-08T08:49:15.759Z,22.33
2022-12-08T08:51:45.333Z,14.68
2022-12-08T08:54:14.887Z,19.92
2022-12-08T08:56:43.949Z,11.27
2022-12-08T08:59:13.426Z,20.83
2022-12-08T09:01:42.168Z,13.10
2022-12-08T09:04:11.980Z,18.58
2022-12-08T09:06:40.691Z,15.80
2022-12-08T09:09:10.154Z,19.23
2022-12-08T09:11:39.716Z,13.48
2022-12-08T09:14:08.234Z,21.05
2022-12-08T09:16:41.970Z,13.52
2022-12-08T09:19:11.893Z,12.55
2022-12-08T09:21:41.183Z,14.82
2022-12-08T09:24:16.176Z,15.23
2022-12-08T09:26:47.618Z,16.02
2022-12-08T09:29:16.018Z,12.93
2022-12-08T09:31:45.046Z,12.93
2022-12-08T09:34:14.120Z,33.90
2022-12-08T09:36:43.027Z,12.63
2022-12-08T09:39:11.785Z,15.60
2022-12-08T09:41:50.796Z,18.08
2022-12-08T09:44:25.758Z,16.65
2022-12-08T09:46:56.268Z,16.85
2022-12-08T09:49:37.821Z,23.77
2022-12-08T09:52:14.011Z,16.63
2022-12-08T09:54:43.139Z,12.30
2022-12-08T09:57:16.656Z,13.25
2022-12-08T09:59:52.315Z,9.80
2022-12-08T10:02:30.796Z,12.88
2022-12-08T10:05:00.660Z,7.85
2022-12-08T10:08:04.464Z,15.70
2022-12-08T10:10:55.097Z,11.05
2022-12-08T10:13:29.055Z,10.38
2022-12-08T10:16:29.848Z,14.27
2022-12-08T10:19:23.761Z,14.82
2022-12-08T10:22:00.420Z,11.25
2022-12-08T10:24:51.306Z,15.38
2022-12-08T10:27:23.195Z,13.50
2022-12-08T10:29:51.686Z,11.93
2022-12-08T10:32:24.240Z,14.73
2022-12-08T10:35:03.283Z,8.63
2022-12-08T10:37:32.117Z,15.18
2022-12-08T10:40:04.030Z,9.57
2022-12-08T10:42:44.058Z,16.80
2022-12-08T10:45:27.354Z,18.27
2022-12-08T10:48:01.033Z,8.35
2022-12-08T10:50:36.790Z,13.48
2022-12-08T10:53:08.375Z,17.27
2022-12-08T10:55:49.205Z,13.68
2022-12-08T10:58:41.436Z,14.18
2022-12-08T11:01:19.524Z,17.60
2022-12-08T11:03:55.081Z,11.88
2022-12-08T11:06:30.195Z,6.00
2022-12-08T11:09:02.892Z,12.30
2022-12-08T11:12:07.983Z,13.77
2022-12-08T11:14:52.327Z,15.30
2022-12-08T11:17:23.548Z,13.88
2022-12-08T11:20:05.962Z,17.23
2022-12-08T11:22:43.188Z,8.40
2022-12-08T11:25:23.515Z,5.53
2022-12-08T11:28:02.418Z,7.85
2022-12-08T11:30:37.124Z,17.73
2022-12-08T11:33:29.020Z,8.70
2022-12-08T11:36:08.815Z,13.48
2022-12-08T11:38:43.551Z,12.02
2022-12-08T11:41:18.104Z,7.07
2022-12-08T11:44:02.867Z,12.40
2022-12-08T11:46:57.615Z,15.65
2022-12-08T11:49:57.461Z,14.05
2022-12-08T11:52:33.592Z,9.23
2022-12-08T11:55:39.007Z,11.07
2022-12-08T11:58:24.855Z,20.50
2022-12-08T12:00:53.680Z,7.25
2022-12-08T12:03:39.538Z,11.73
2022-12-08T12:06:30.821Z,16.38
2022-12-08T12:09:39.046Z,14.10
2022-12-08T12:15:25.434Z,14.20
2022-12-08T12:17:58.317Z,8.98
2022-12-08T12:20:48.636Z,19.30
2022-12-08T12:23:49.462Z,13.63
2022-12-08T12:26:32.284Z,7.65
2022-12-08T12:29:15.784Z,11.52
2022-12-08T12:31:51.272Z,13.45
2022-12-08T12:34:26.660Z,19.67
2022-12-08T12:37:00.003Z,12.73
2022-12-08T12:39:31.624Z,13.57
2022-12-08T12:42:02.962Z,17.30
2022-12-08T12:44:33.729Z,20.40
2022-12-08T12:47:06.301Z,11.57
2022-12-08T12:49:45.366Z,10.18
2022-12-08T12:52:21.268Z,8.38
2022-12-08T12:54:54.629Z,15.77
2022-12-08T12:57:26.576Z,9.65
2022-12-08T13:00:05.169Z,16.08
2022-12-08T13:02:55.454Z,12.73
2022-12-08T13:05:46.777Z,5.72
2022-12-08T13:08:27.085Z,7.25
2022-12-08T13:11:11.934Z,11.35
2022-12-08T13:14:03.237Z,10.02
2022-12-08T13:16:41.449Z,16.35
2022-12-08T13:19:17.625Z,9.63
2022-12-08T13:21:46.295Z,8.65
2022-12-08T13:24:35.943Z,12.45
2022-12-08T13:27:04.826Z,10.43
2022-12-08T13:29:38.818Z,16.30
2022-12-08T13:34:55.780Z,12.85
2022-12-08T13:37:54.585Z,9.20
2022-12-08T13:40:41.714Z,9.55
2022-12-08T13:43:44.662Z,13.60
2022-12-08T13:51:15.941Z,6.53
2022-12-08T13:58:45.721Z,6.28
2022-12-08T14:01:31.709Z,10.57
2022-12-08T14:04:37.632Z,8.18
2022-12-08T14:07:01.741Z,13.30
2022-12-08T14:12:08.065Z,14.02
2022-12-08T14:15:05.296Z,13.85
2022-12-08T14:17:35.049Z,14.43
2022-12-08T14:20:30.927Z,10.35
2022-12-08T14:23:00.531Z,11.00
2022-12-08T14:25:30.581Z,10.23
2022-12-08T14:28:05.506Z,19.23
2022-12-08T14:30:38.096Z,13.70
2022-12-08T14:33:13.872Z,16.13
2022-12-08T14:35:42.617Z,16.55
2022-12-08T14:38:17.314Z,10.90
2022-12-08T14:40:47.259Z,18.17
2022-12-08T14:43:21.696Z,20.38
2022-12-08T14:45:52.416Z,14.70
2022-12-08T14:48:21.280Z,16.50
2022-12-08T14:51:02.802Z,15.27
2022-12-08T14:53:40.371Z,11.40
2022-12-08T14:56:16.983Z,21.05
2022-12-08T14:58:46.600Z,21.70
2022-12-08T15:01:19.406Z,12.75
2022-12-08T15:03:51.478Z,7.65
2022-12-08T15:06:24.512Z,16.17
2022-12-08T15:08:59.301Z,6.07
2022-12-08T15:11:33.495Z,9.43
2022-12-08T15:14:03.222Z,9.60
2022-12-08T15:16:40.336Z,13.18
2022-12-08T15:19:28.622Z,13.85
2022-12-08T15:22:00.762Z,13.63
2022-12-08T15:24:32.224Z,7.03
2022-12-08T15:27:01.112Z,14.55
2022-12-08T15:29:31.493Z,14.65
2022-12-08T15:32:02.037Z,8.50
2022-12-08T15:34:32.353Z,13.25
2022-12-08T15:37:00.813Z,15.13
2022-12-08T15:39:36.631Z,20.63
2022-12-08T15:42:12.207Z,15.98
2022-12-08T15:44:41.712Z,17.65
2022-12-08T15:47:19.892Z,7.60
2022-12-08T15:49:51.546Z,13.50
2022-12-08T15:52:22.633Z,17.05
2022-12-08T15:54:51.576Z,7.93
2022-12-08T15:58:04.588Z,18.00
2022-12-08T16:00:51.293Z,9.77
2022-12-08T16:04:19.832Z,13.20
2022-12-08T16:09:38.920Z,10.15
2022-12-08T16:13:26.949Z,14.23
2022-12-08T16:18:27.564Z,12.48
2022-12-08T16:23:45.767Z,17.15
2022-12-08T16:26:44.151Z,17.95
2022-12-08T16:29:07.129Z,20.35
2022-12-08T16:31:35.948Z,7.35
2022-12-08T16:34:08.124Z,8.10
2022-12-08T16:36:37.623Z,10.52
2022-12-08T16:39:06.442Z,8.88
2022-12-08T16:41:54.256Z,10.82
2022-12-08T16:44:23.673Z,10.15
2022-12-08T16:46:52.150Z,6.22
2022-12-08T16:49:20.862Z,9.40
2022-12-08T16:51:49.591Z,5.82
2022-12-08T16:54:18.173Z,11.15
2022-12-08T16:56:46.807Z,10.95
2022-12-08T16:59:15.330Z,9.60
2022-12-08T17:01:44.180Z,16.83
2022-12-08T17:07:01.888Z,8.55
2022-12-08T17:09:33.015Z,13.68
2022-12-08T17:12:04.328Z,12.65
2022-12-08T17:14:37.023Z,6.45
2022-12-08T17:17:06.998Z,10.90
2022-12-08T17:19:35.991Z,5.88
2022-12-08T17:22:05.217Z,9.68
2022-12-08T17:24:33.978Z,6.95
2022-12-08T17:27:07.224Z,8.18
2022-12-08T17:29:36.280Z,10.57
2022-12-08T17:32:05.329Z,9.27
2022-12-08T17:34:34.628Z,11.05
2022-12-08T17:37:03.184Z,9.35
2022-12-08T17:39:31.860Z,8.23
2022-12-08T17:42:00.826Z,9.02
2022-12-08T17:44:29.520Z,13.88
2022-12-08T17:46:58.169Z,14.10
2022-12-08T17:49:30.350Z,12.52
2022-12-08T17:52:00.812Z,8.45
2022-12-08T17:54:29.882Z,3.85
2022-12-08T17:56:59.278Z,13.63
2022-12-08T17:59:29.337Z,9.30
2022-12-08T18:01:58.912Z,14.15
2022-12-08T18:04:29.016Z,16.05
2022-12-08T18:07:01.070Z,15.65
2022-12-08T18:09:31.833Z,6.85
2022-12-08T18:12:00.945Z,2.40
2022-12-08T18:14:29.456Z,6.97
2022-12-08T18:16:58.209Z,10.75
2022-12-08T18:19:27.091Z,15.32
2022-12-08T18:21:55.723Z,6.88
2022-12-08T18:24:24.880Z,14.38
2022-12-08T18:26:53.817Z,9.80
2022-12-08T18:29:23.572Z,9.65
2022-12-08T18:31:52.731Z,8.63
2022-12-08T18:34:22.090Z,9.15
2022-12-08T18:36:50.778Z,5.43
2022-12-08T18:39:28.337Z,13.65
2022-12-08T18:41:58.756Z,17.88
2022-12-08T18:44:27.201Z,17.17
2022-12-08T18:46:55.711Z,11.55
2022-12-08T18:49:24.411Z,13.43
2022-12-08T18:51:53.759Z,10.23
2022-12-08T18:54:37.206Z,9.32
2022-12-08T18:57:12.236Z,5.03
2022-12-08T18:59:40.812Z,13.05
2022-12-08T19:02:11.011Z,12.23
2022-12-08T19:04:41.453Z,10.18
2022-12-08T19:07:12.106Z,15.82
2022-12-08T19:09:41.174Z,21.27
2022-12-08T19:12:09.714Z,13.38
2022-12-08T19:14:38.728Z,9.07
2022-12-08T19:17:07.814Z,11.30
2022-12-08T19:19:36.954Z,14.82
2022-12-08T19:22:06.231Z,10.77
2022-12-08T19:24:37.343Z,19.88
2022-12-08T19:27:06.440Z,13.32
2022-12-08T19:29:35.348Z,4.50
2022-12-08T19:32:05.758Z,12.73
2022-12-08T19:34:34.822Z,11.98
2022-12-08T19:37:03.261Z,6.05
2022-12-08T19:39:50.175Z,10.45
2022-12-08T19:42:39.712Z,5.18
2022-12-08T19:45:12.837Z,12.55
2022-12-08T19:47:44.224Z,8.63
2022-12-08T19:50:33.946Z,11.70
2022-12-08T19:53:03.775Z,10.10
2022-12-08T19:55:32.978Z,7.35
2022-12-08T19:58:02.606Z,24.08
2022-12-08T20:00:32.743Z,6.47
2022-12-08T20:03:02.903Z,15.15
2022-12-08T20:05:34.268Z,12.20
2022-12-08T20:08:03.045Z,8.68
2022-12-08T20:10:35.433Z,21.55
2022-12-08T20:13:22.745Z,15.15
2022-12-08T20:15:51.417Z,9.32
2022-12-08T20:18:20.185Z,13.02
2022-12-08T20:20:49.312Z,6.53
2022-12-08T20:23:18.290Z,19.35
2022-12-08T20:25:48.539Z,13.23
2022-12-08T20:28:17.163Z,11.98
2022-12-08T20:30:47.753Z,12.85
2022-12-08T20:33:18.617Z,8.25
2022-12-08T20:35:47.908Z,11.70
2022-12-08T20:38:16.893Z,15.10
2022-12-08T20:40:47.809Z,9.35
2022-12-08T20:43:16.508Z,8.60
2022-12-08T20:45:45.233Z,7.22
2022-12-08T20:48:13.589Z,10.93
2022-12-08T20:50:42.289Z,11.13
2022-12-08T20:53:10.814Z,13.73
2022-12-08T20:55:42.434Z,9.23
2022-12-08T20:58:11.180Z,10.93
2022-12-08T21:00:39.933Z,9.93
2022-12-08T21:03:09.289Z,4.88
2022-12-08T21:05:39.503Z,9.02
2022-12-08T21:08:08.408Z,13.30
2022-12-08T21:10:42.220Z,15.98
2022-12-08T21:13:12.658Z,5.70
2022-12-08T21:15:47.192Z,10.98
2022-12-08T21:18:17.380Z,6.78
2022-12-08T21:20:48.208Z,12.40
2022-12-08T21:23:17.719Z,15.05
2022-12-08T21:25:47.963Z,5.95
2022-12-08T21:28:16.719Z,16.90
2022-12-08T21:30:45.298Z,17.77
2022-12-08T21:33:13.985Z,11.57
2022-12-08T21:35:42.800Z,11.38
2022-12-08T21:38:11.542Z,20.77
2022-12-08T21:40:40.298Z,11.57
2022-12-08T21:43:09.027Z,6.97
2022-12-08T21:45:37.451Z,6.22
2022-12-08T21:48:11.295Z,6.40
2022-12-08T21:50:40.572Z,13.57
2022-12-08T21:53:09.531Z,11.63
2022-12-08T21:55:37.953Z,8.73
2022-12-08T21:58:06.574Z,8.70
2022-12-08T22:00:35.258Z,6.60
2022-12-08T22:03:07.216Z,13.32
2022-12-08T22:05:36.911Z,8.80
2022-12-08T22:08:05.772Z,11.50
2022-12-08T22:10:34.890Z,3.05
2022-12-08T22:13:03.667Z,15.85
2022-12-08T22:15:33.492Z,9.27
2022-12-08T22:18:02.148Z,18.90
2022-12-08T22:20:30.832Z,5.65
2022-12-08T22:22:59.360Z,6.55
2022-12-08T22:25:28.058Z,16.00
2022-12-08T22:27:56.386Z,5.45
2022-12-08T22:30:25.109Z,10.98
2022-12-08T22:32:53.867Z,16.08
2022-12-08T22:35:22.711Z,13.55
2022-12-08T22:37:51.700Z,14.55
2022-12-08T22:40:22.576Z,15.82
2022-12-08T22:42:51.238Z,9.38
2022-12-08T22:45:22.347Z,7.13
2022-12-08T22:47:51.136Z,10.27
2022-12-08T22:50:19.674Z,25.08
2022-12-08T22:52:48.383Z,17.05
2022-12-08T22:55:17.144Z,19.23
2022-12-08T22:57:45.557Z,12.40
2022-12-08T23:00:14.314Z,3.55
2022-12-08T23:02:43.127Z,4.63
2022-12-08T23:05:12.906Z,17.55
2022-12-08T23:07:41.859Z,18.50
2022-12-08T23:10:11.911Z,9.82
2022-12-08T23:12:40.705Z,7.72
2022-12-08T23:15:09.523Z,10.18
2022-12-08T23:17:38.483Z,5.50
2022-12-08T23:20:08.181Z,11.73
2022-12-08T23:22:37.031Z,7.50
2022-12-08T23:25:06.375Z,11.32
2022-12-08T23:27:35.175Z,16.08
2022-12-08T23:30:05.658Z,17.15
2022-12-08T23:32:34.716Z,14.75
2022-12-08T23:35:03.504Z,14.50
2022-12-08T23:37:32.195Z,11.68
2022-12-08T23:40:00.923Z,12.13
2022-12-08T23:42:32.738Z,6.72
2022-12-08T23:45:01.389Z,13.85
2022-12-08T23:47:30.275Z,12.85
2022-12-08T23:49:59.021Z,9.43
2022-12-08T23:52:27.621Z,9.05
2022-12-08T23:54:56.592Z,6.72
2022-12-08T23:57:25.448Z,7.80
2022-12-08T23:59:54.043Z,12.35
